createdAt,value
2018-03-20T00:02:05.224Z,100839.14
2018-03-20T00:04:33.699Z,100842.14
2018-03-20T00:07:03.308Z,100840.50
2018-03-20T00:09:32.726Z,100842.34
2018-03-20T00:12:01.654Z,100843.38
2018-03-20T00:14:30.155Z,100841.03
2018-03-20T00:16:58.742Z,100837.71
2018-03-20T00:19:27.264Z,100842.14
2018-03-20T00:21:55.745Z,100840.68
2018-03-20T00:24:24.267Z,100835.86
2018-03-20T00:26:52.838Z,100834.04
2018-03-20T00:29:22.379Z,100841.64
2018-03-20T00:31:50.970Z,100842.93
2018-03-20T00:34:19.388Z,100836.14
2018-03-20T00:36:47.904Z,100838.07
2018-03-20T00:39:16.470Z,100837.97
2018-03-20T00:41:45.046Z,100839.39
2018-03-20T00:44:13.599Z,100833.58
2018-03-20T00:46:42.921Z,100831.47
2018-03-20T00:49:11.513Z,100825.03
2018-03-20T00:51:39.997Z,100827.35
2018-03-20T00:54:09.443Z,100823.95
2018-03-20T00:56:38.082Z,100828.86
2018-03-20T00:59:06.977Z,100828.43
2018-03-20T01:01:35.557Z,100826.98
2018-03-20T01:04:04.139Z,100835.81
2018-03-20T01:06:34.327Z,100835.39
2018-03-20T01:09:02.950Z,100843.30
2018-03-20T01:11:31.391Z,100836.41
2018-03-20T01:13:59.851Z,100837.41
2018-03-20T01:16:28.367Z,100840.24
2018-03-20T01:18:56.945Z,100834.03
2018-03-20T01:21:25.398Z,100843.24
2018-03-20T01:23:53.892Z,100831.20
2018-03-20T01:26:22.384Z,100840.84
2018-03-20T01:28:50.826Z,100837.66
2018-03-20T01:31:19.310Z,100841.66
2018-03-20T01:33:48.134Z,100833.25
2018-03-20T01:36:16.723Z,100848.39
2018-03-20T01:38:46.024Z,100828.19
2018-03-20T01:41:14.663Z,100843.79
2018-03-20T01:43:43.291Z,100841.80
2018-03-20T01:46:12.073Z,100843.52
2018-03-20T01:48:40.634Z,100844.71
2018-03-20T01:51:09.769Z,100843.78
2018-03-20T01:53:39.227Z,100848.55
2018-03-20T01:56:08.279Z,100860.77
2018-03-20T01:58:36.937Z,100855.88
2018-03-20T02:01:06.283Z,100860.25
2018-03-20T02:03:34.925Z,100870.56
2018-03-20T02:06:03.408Z,100857.89
2018-03-20T02:08:33.494Z,100862.00
2018-03-20T02:11:01.999Z,100861.84
2018-03-20T02:13:30.517Z,100863.69
2018-03-20T02:16:00.018Z,100875.72
2018-03-20T02:18:28.617Z,100874.73
2018-03-20T02:20:57.154Z,100877.19
2018-03-20T02:23:25.681Z,100879.59
2018-03-20T02:25:54.832Z,100888.52
2018-03-20T02:28:23.293Z,100884.66
2018-03-20T02:30:51.971Z,100894.36
2018-03-20T02:33:20.456Z,100903.64
2018-03-20T02:35:48.970Z,100902.21
2018-03-20T02:38:17.519Z,100900.06
2018-03-20T02:40:46.054Z,100909.28
2018-03-20T02:43:14.484Z,100916.30
2018-03-20T02:45:43.198Z,100922.45
2018-03-20T02:48:11.654Z,100924.80
2018-03-20T02:50:40.191Z,100913.40
2018-03-20T02:53:09.051Z,100924.93
2018-03-20T02:55:37.577Z,100941.41
2018-03-20T02:58:06.163Z,100945.92
2018-03-20T03:00:34.858Z,100948.17
2018-03-20T03:03:03.391Z,100950.48
2018-03-20T03:05:31.858Z,100954.08
2018-03-20T03:08:01.109Z,100964.67
2018-03-20T03:10:29.536Z,100966.97
2018-03-20T03:12:58.060Z,100971.89
2018-03-20T03:15:26.945Z,100980.59
2018-03-20T03:17:55.493Z,100979.51
2018-03-20T03:20:23.925Z,100981.81
2018-03-20T03:22:52.711Z,100993.41
2018-03-20T03:25:21.394Z,100994.36
2018-03-20T03:27:49.973Z,100993.12
2018-03-20T03:30:18.460Z,100990.11
2018-03-20T03:32:47.959Z,101000.23
2018-03-20T03:35:16.442Z,101009.47
2018-03-20T03:37:45.947Z,101010.83
2018-03-20T03:40:15.453Z,101020.11
2018-03-20T03:42:43.891Z,101019.67
2018-03-20T03:45:13.287Z,101019.30
2018-03-20T03:47:41.823Z,101024.61
2018-03-20T03:50:10.663Z,101030.70
2018-03-20T03:52:39.944Z,101031.64
2018-03-20T03:55:08.492Z,101037.81
2018-03-20T03:57:37.134Z,101045.38
2018-03-20T04:00:06.389Z,101040.56
2018-03-20T04:02:35.891Z,101055.94
2018-03-20T04:05:04.753Z,101053.78
2018-03-20T04:07:35.054Z,101055.61
2018-03-20T04:10:04.288Z,101060.48
2018-03-20T04:12:32.747Z,101073.23
2018-03-20T04:15:01.267Z,101075.41
2018-03-20T04:17:29.726Z,101083.41
2018-03-20T04:19:58.204Z,101079.51
2018-03-20T04:22:26.796Z,101091.44
2018-03-20T04:24:55.278Z,101084.89
2018-03-20T04:27:23.803Z,101097.59
2018-03-20T04:29:52.656Z,101096.17
2018-03-20T04:32:21.118Z,101094.44
2018-03-20T04:34:49.548Z,101108.37
2018-03-20T04:37:18.057Z,101118.01
2018-03-20T04:39:46.534Z,101111.06
2018-03-20T04:42:15.006Z,101114.14
2018-03-20T04:44:44.101Z,101121.58
2018-03-20T04:47:12.901Z,101128.22
2018-03-20T04:49:41.381Z,101132.76
2018-03-20T04:52:10.204Z,101135.39
2018-03-20T04:54:38.948Z,101134.96
2018-03-20T04:57:07.695Z,101142.40
2018-03-20T04:59:37.302Z,101149.39
2018-03-20T05:02:05.806Z,101160.83
2018-03-20T05:04:34.321Z,101159.98
2018-03-20T05:07:02.868Z,101161.00
2018-03-20T05:09:31.374Z,101165.46
2018-03-20T05:11:59.868Z,101167.33
2018-03-20T05:14:28.367Z,101177.67
2018-03-20T05:16:56.853Z,101177.63
2018-03-20T05:22:47.982Z,101190.52
2018-03-20T05:25:16.814Z,101188.79
2018-03-20T05:27:46.061Z,101195.80
2018-03-20T05:30:14.540Z,101199.34
2018-03-20T05:32:43.155Z,101205.58
2018-03-20T05:35:11.741Z,101209.07
2018-03-20T05:37:40.242Z,101209.55
2018-03-20T05:40:08.912Z,101211.29
2018-03-20T05:42:37.403Z,101217.45
2018-03-20T05:45:05.944Z,101213.05
2018-03-20T05:47:40.989Z,101224.45
2018-03-20T05:50:14.911Z,101224.38
2018-03-20T05:52:43.571Z,101228.23
2018-03-20T05:55:12.046Z,101232.18
2018-03-20T05:57:40.561Z,101242.24
2018-03-20T06:00:10.164Z,101248.33
2018-03-20T06:02:38.645Z,101242.12
2018-03-20T06:05:07.196Z,101250.80
2018-03-20T06:07:35.823Z,101264.78
2018-03-20T06:10:04.408Z,101264.25
2018-03-20T06:12:32.885Z,101272.48
2018-03-20T06:15:03.042Z,101278.98
2018-03-20T06:17:35.790Z,101279.82
2018-03-20T06:20:04.373Z,101281.90
2018-03-20T06:22:32.848Z,101284.08
2018-03-20T06:25:01.272Z,101287.50
2018-03-20T06:27:29.891Z,101294.80
2018-03-20T06:29:58.392Z,101314.06
2018-03-20T06:32:26.984Z,101316.19
2018-03-20T06:34:55.431Z,101316.13
2018-03-20T06:37:23.891Z,101328.27
2018-03-20T06:39:52.945Z,101347.48
2018-03-20T06:42:21.385Z,101337.81
2018-03-20T06:44:49.808Z,101344.45
2018-03-20T06:47:18.239Z,101341.20
2018-03-20T06:49:46.749Z,101350.27
2018-03-20T06:52:15.208Z,101358.62
2018-03-20T06:54:43.762Z,101354.52
2018-03-20T06:57:13.617Z,101353.68
2018-03-20T06:59:42.645Z,101368.84
2018-03-20T07:02:11.224Z,101366.28
2018-03-20T07:04:41.209Z,101375.97
2018-03-20T07:07:09.688Z,101374.41
2018-03-20T07:09:38.148Z,101377.64
2018-03-20T07:12:06.928Z,101384.27
2018-03-20T07:14:47.089Z,101395.61
2018-03-20T07:17:15.914Z,101399.41
2018-03-20T07:19:44.440Z,101407.72
2018-03-20T07:22:13.060Z,101418.11
2018-03-20T07:24:41.766Z,101418.54
2018-03-20T07:27:10.265Z,101414.59
2018-03-20T07:29:38.872Z,101432.52
2018-03-20T07:32:07.471Z,101436.28
2018-03-20T07:34:36.048Z,101452.61
2018-03-20T07:37:04.592Z,101445.86
2018-03-20T07:39:33.289Z,101454.94
2018-03-20T07:42:01.722Z,101450.51
2018-03-20T07:44:30.227Z,101457.92
2018-03-20T07:46:59.573Z,101454.95
2018-03-20T07:49:28.054Z,101452.12
2018-03-20T07:51:56.501Z,101473.45
2018-03-20T07:54:25.793Z,101456.70
2018-03-20T07:56:54.310Z,101477.66
2018-03-20T07:59:23.728Z,101477.05
2018-03-20T08:01:52.321Z,101488.67
2018-03-20T08:04:20.758Z,101488.45
2018-03-20T08:06:49.405Z,101506.95
2018-03-20T08:09:18.058Z,101491.67
2018-03-20T08:11:46.549Z,101519.25
2018-03-20T08:14:15.403Z,101510.02
2018-03-20T08:16:45.273Z,101521.73
2018-03-20T08:19:13.782Z,101533.23
2018-03-20T08:21:42.434Z,101528.05
2018-03-20T08:24:11.243Z,101531.01
2018-03-20T08:26:39.874Z,101540.91
2018-03-20T08:29:08.414Z,101542.46
2018-03-20T08:31:36.949Z,101546.07
2018-03-20T08:34:05.548Z,101544.41
2018-03-20T08:36:34.103Z,101550.89
2018-03-20T08:39:03.517Z,101558.63
2018-03-20T08:41:31.993Z,101575.96
2018-03-20T08:44:00.526Z,101572.94
2018-03-20T08:46:29.219Z,101582.28
2018-03-20T08:48:57.744Z,101587.16
2018-03-20T08:51:26.192Z,101596.04
2018-03-20T08:53:54.861Z,101591.70
2018-03-20T08:56:23.290Z,101587.31
2018-03-20T08:58:51.930Z,101600.59
2018-03-20T09:01:20.431Z,101596.30
2018-03-20T09:03:48.968Z,101604.69
2018-03-20T09:06:17.739Z,101602.05
2018-03-20T09:08:46.352Z,101600.02
2018-03-20T09:11:15.007Z,101616.22
2018-03-20T09:13:43.806Z,101621.36
2018-03-20T09:16:13.008Z,101621.80
2018-03-20T09:18:41.548Z,101628.86
2018-03-20T09:21:10.218Z,101641.66
2018-03-20T09:23:39.773Z,101634.00
2018-03-20T09:26:08.470Z,101657.91
2018-03-20T09:28:37.103Z,101650.05
2018-03-20T09:31:05.811Z,101657.45
2018-03-20T09:33:34.476Z,101670.72
2018-03-20T09:36:02.963Z,101664.23
2018-03-20T09:38:32.306Z,101679.80
2018-03-20T09:41:00.733Z,101684.86
2018-03-20T09:43:29.185Z,101694.45
2018-03-20T09:45:58.465Z,101687.33
2018-03-20T09:48:27.126Z,101698.62
2018-03-20T09:50:55.576Z,101703.50
2018-03-20T09:53:24.101Z,101709.77
2018-03-20T09:55:52.582Z,101703.26
2018-03-20T09:58:21.110Z,101713.50
2018-03-20T10:00:49.638Z,101711.00
2018-03-20T10:03:18.197Z,101711.72
2018-03-20T10:05:47.327Z,101715.52
2018-03-20T10:08:16.732Z,101713.80
2018-03-20T10:10:45.307Z,101726.30
2018-03-20T10:13:13.895Z,101725.59
2018-03-20T10:15:42.633Z,101724.65
2018-03-20T10:18:11.261Z,101734.08
2018-03-20T10:20:39.800Z,101727.59
2018-03-20T10:23:08.391Z,101737.88
2018-03-20T10:25:37.274Z,101734.95
2018-03-20T10:28:05.823Z,101751.33
2018-03-20T10:30:34.545Z,101750.23
2018-03-20T10:33:03.573Z,101761.08
2018-03-20T10:35:33.350Z,101755.66
2018-03-20T10:38:01.942Z,101766.89
2018-03-20T10:40:30.407Z,101760.91
2018-03-20T10:42:58.902Z,101777.53
2018-03-20T10:45:27.527Z,101782.03
2018-03-20T10:47:56.027Z,101785.59
2018-03-20T10:50:25.511Z,101778.17
2018-03-20T10:52:54.050Z,101796.04
2018-03-20T10:55:22.485Z,101802.19
2018-03-20T10:57:50.976Z,101802.72
2018-03-20T11:03:27.884Z,101816.73
2018-03-20T11:05:56.397Z,101812.45
2018-03-20T11:08:24.815Z,101811.69
2018-03-20T11:10:53.368Z,101809.53
2018-03-20T11:13:21.939Z,101810.14
2018-03-20T11:15:54.430Z,101812.91
2018-03-20T11:18:22.931Z,101829.20
2018-03-20T11:20:51.846Z,101813.31
2018-03-20T11:23:20.329Z,101815.00
2018-03-20T11:25:49.050Z,101822.41
2018-03-20T11:28:17.531Z,101825.97
2018-03-20T11:30:46.055Z,101826.98
2018-03-20T11:33:14.612Z,101821.42
2018-03-20T11:35:43.248Z,101827.22
2018-03-20T11:38:11.880Z,101833.39
2018-03-20T11:40:40.534Z,101838.61
2018-03-20T11:43:09.293Z,101851.95
2018-03-20T11:45:42.788Z,101862.11
2018-03-20T11:48:11.646Z,101853.13
2018-03-20T11:50:40.254Z,101854.91
2018-03-20T11:53:09.047Z,101866.98
2018-03-20T11:55:37.864Z,101864.43
2018-03-20T11:58:06.617Z,101860.08
2018-03-20T12:00:36.113Z,101878.53
2018-03-20T12:03:04.826Z,101871.84
2018-03-20T12:05:33.403Z,101874.98
2018-03-20T12:11:06.636Z,101886.89
2018-03-20T12:13:35.176Z,101881.72
2018-03-20T12:16:03.745Z,101886.44
2018-03-20T12:18:32.222Z,101880.95
2018-03-20T12:21:00.839Z,101895.88
2018-03-20T12:23:29.926Z,101891.72
2018-03-20T12:25:58.374Z,101890.70
2018-03-20T12:28:26.861Z,101907.59
2018-03-20T12:30:55.465Z,101888.56
2018-03-20T12:33:23.959Z,101906.06
2018-03-20T12:35:53.083Z,101904.91
2018-03-20T12:38:21.529Z,101926.06
2018-03-20T12:40:49.987Z,101914.69
2018-03-20T12:43:18.498Z,101904.20
2018-03-20T12:45:47.045Z,101911.44
2018-03-20T12:48:15.669Z,101925.51
2018-03-20T12:50:44.354Z,101926.31
2018-03-20T12:53:13.165Z,101920.32
2018-03-20T12:55:41.695Z,101913.50
2018-03-20T12:58:12.487Z,101919.40
2018-03-20T13:00:41.078Z,101920.66
2018-03-20T13:03:09.923Z,101919.53
2018-03-20T13:05:38.644Z,101930.67
2018-03-20T13:08:07.403Z,101923.56
2018-03-20T13:10:36.457Z,101934.45
2018-03-20T13:13:05.505Z,101934.48
2018-03-20T13:15:41.346Z,101935.23
2018-03-20T13:18:09.927Z,101941.83
2018-03-20T13:20:38.514Z,101930.33
2018-03-20T13:23:07.228Z,101931.64
2018-03-20T13:25:36.291Z,101942.06
2018-03-20T13:28:04.985Z,101945.34
2018-03-20T13:30:33.562Z,101946.92
2018-03-20T13:33:02.188Z,101949.16
2018-03-20T13:35:30.879Z,101948.42
2018-03-20T13:37:59.405Z,101959.22
2018-03-20T13:40:30.636Z,101946.77
2018-03-20T13:42:59.148Z,101955.36
2018-03-20T13:45:28.227Z,101959.34
2018-03-20T13:47:56.753Z,101957.01
2018-03-20T13:50:25.321Z,101966.69
2018-03-20T13:52:53.791Z,101964.44
2018-03-20T13:55:23.219Z,101967.88
2018-03-20T13:57:51.680Z,101979.00
2018-03-20T14:00:20.256Z,101978.16
2018-03-20T14:02:49.609Z,101985.09
2018-03-20T14:05:20.798Z,101968.50
2018-03-20T14:07:49.378Z,101978.06
2018-03-20T14:10:18.272Z,101980.36
2018-03-20T14:12:46.955Z,101981.77
2018-03-20T14:15:15.535Z,101981.48
2018-03-20T14:17:44.124Z,101988.03
2018-03-20T14:20:12.621Z,101978.76
2018-03-20T14:22:41.193Z,101987.89
2018-03-20T14:25:10.405Z,101986.66
2018-03-20T14:27:39.295Z,101986.01
2018-03-20T14:30:07.962Z,101995.62
2018-03-20T14:32:37.327Z,101992.89
2018-03-20T14:35:06.176Z,101998.73
2018-03-20T14:37:34.941Z,101996.52
2018-03-20T14:40:04.271Z,101986.73
2018-03-20T14:42:33.261Z,101999.42
2018-03-20T14:45:01.731Z,102005.79
2018-03-20T14:47:31.315Z,101998.38
2018-03-20T14:49:59.799Z,101998.12
2018-03-20T14:52:28.281Z,101999.97
2018-03-20T14:54:57.022Z,102001.06
2018-03-20T14:57:25.550Z,102004.20
2018-03-20T14:59:54.032Z,102004.98
2018-03-20T15:02:22.532Z,102004.62
2018-03-20T15:04:52.132Z,102006.17
2018-03-20T15:07:20.737Z,102015.11
2018-03-20T15:09:49.519Z,102018.06
2018-03-20T15:12:18.180Z,102015.17
2018-03-20T15:14:49.742Z,102016.46
2018-03-20T15:17:18.940Z,102033.64
2018-03-20T15:19:48.177Z,102031.30
2018-03-20T15:22:16.720Z,102023.84
2018-03-20T15:24:45.312Z,102031.64
2018-03-20T15:27:13.909Z,102031.11
2018-03-20T15:29:42.509Z,102028.41
2018-03-20T15:32:11.360Z,102026.03
2018-03-20T15:34:40.050Z,102040.26
2018-03-20T15:37:08.985Z,102032.50
2018-03-20T15:39:39.748Z,102038.41
2018-03-20T15:42:08.398Z,102049.84
2018-03-20T15:44:37.166Z,102042.03
2018-03-20T15:47:06.341Z,102043.95
2018-03-20T15:49:34.927Z,102046.80
2018-03-20T15:52:03.948Z,102055.31
2018-03-20T15:54:32.645Z,102053.91
2018-03-20T15:57:01.186Z,102053.97
2018-03-20T15:59:29.696Z,102055.84
2018-03-20T16:01:58.281Z,102055.45
2018-03-20T16:04:26.838Z,102066.31
2018-03-20T16:06:55.339Z,102063.94
2018-03-20T16:09:24.104Z,102070.62
2018-03-20T16:11:52.587Z,102072.09
2018-03-20T16:14:21.368Z,102067.80
2018-03-20T16:16:49.867Z,102073.31
2018-03-20T16:19:18.451Z,102081.25
2018-03-20T16:21:47.170Z,102073.05
2018-03-20T16:24:16.131Z,102083.15
2018-03-20T16:26:45.182Z,102081.59
2018-03-20T16:29:14.310Z,102083.38
2018-03-20T16:31:43.616Z,102087.02
2018-03-20T16:34:12.141Z,102092.14
2018-03-20T16:36:40.698Z,102089.74
2018-03-20T16:39:10.153Z,102090.38
2018-03-20T16:41:39.622Z,102092.59
2018-03-20T16:44:08.531Z,102097.13
2018-03-20T16:46:37.699Z,102094.44
2018-03-20T16:49:06.686Z,102100.19
2018-03-20T16:51:35.506Z,102094.45
2018-03-20T16:54:04.685Z,102098.80
2018-03-20T16:56:33.930Z,102106.72
2018-03-20T16:59:03.501Z,102108.32
2018-03-20T17:01:32.734Z,102112.72
2018-03-20T17:04:01.446Z,102109.31
2018-03-20T17:06:29.982Z,102108.38
2018-03-20T17:08:58.587Z,102115.09
2018-03-20T17:11:27.108Z,102118.64
2018-03-20T17:13:55.684Z,102126.78
2018-03-20T17:16:24.336Z,102131.73
2018-03-20T17:18:53.051Z,102137.48
2018-03-20T17:21:21.851Z,102138.87
2018-03-20T17:23:50.442Z,102138.52
2018-03-20T17:26:18.909Z,102142.19
2018-03-20T17:28:48.142Z,102150.06
2018-03-20T17:31:17.557Z,102151.52
2018-03-20T17:33:46.094Z,102159.05
2018-03-20T17:36:14.772Z,102162.97
2018-03-20T17:38:43.916Z,102160.64
2018-03-20T17:41:12.570Z,102163.44
2018-03-20T17:43:41.184Z,102166.27
2018-03-20T17:46:10.901Z,102175.19
2018-03-20T17:48:39.792Z,102169.88
2018-03-20T17:51:08.321Z,102175.67
2018-03-20T17:53:37.554Z,102174.44
2018-03-20T17:56:06.139Z,102179.84
2018-03-20T17:58:34.897Z,102179.30
2018-03-20T18:01:03.883Z,102176.19
2018-03-20T18:03:32.471Z,102183.47
2018-03-20T18:06:00.986Z,102183.61
2018-03-20T18:08:29.715Z,102191.16
2018-03-20T18:10:58.427Z,102194.86
2018-03-20T18:13:26.941Z,102195.39
2018-03-20T18:16:00.137Z,102200.78
2018-03-20T18:18:29.224Z,102196.08
2018-03-20T18:20:58.631Z,102199.59
2018-03-20T18:23:29.120Z,102206.11
2018-03-20T18:25:57.611Z,102208.88
2018-03-20T18:28:26.882Z,102209.44
2018-03-20T18:30:55.459Z,102210.79
2018-03-20T18:33:25.249Z,102208.17
2018-03-20T18:35:54.245Z,102211.23
2018-03-20T18:38:25.021Z,102211.79
2018-03-20T18:40:53.650Z,102216.23
2018-03-20T18:43:22.981Z,102216.22
2018-03-20T18:45:52.062Z,102221.60
2018-03-20T18:48:21.562Z,102215.97
2018-03-20T18:50:50.164Z,102231.41
2018-03-20T18:53:20.648Z,102223.53
2018-03-20T18:55:50.144Z,102223.61
2018-03-20T18:58:19.276Z,102231.09
2018-03-20T19:00:49.876Z,102236.42
2018-03-20T19:03:18.540Z,102243.59
2018-03-20T19:05:47.482Z,102242.02
2018-03-20T19:08:16.199Z,102249.08
2018-03-20T19:10:45.324Z,102250.87
2018-03-20T19:13:15.533Z,102252.25
2018-03-20T19:15:46.892Z,102258.36
2018-03-20T19:18:15.670Z,102252.28
2018-03-20T19:20:44.384Z,102261.11
2018-03-20T19:23:19.988Z,102268.56
2018-03-20T19:25:53.095Z,102265.11
2018-03-20T19:28:27.838Z,102265.65
2018-03-20T19:30:56.416Z,102265.31
2018-03-20T19:33:25.921Z,102273.28
2018-03-20T19:35:54.489Z,102266.30
2018-03-20T19:38:23.159Z,102277.37
2018-03-20T19:40:51.803Z,102276.50
2018-03-20T19:43:21.138Z,102281.37
2018-03-20T19:45:53.244Z,102277.92
2018-03-20T19:48:24.705Z,102283.52
2018-03-20T19:50:53.587Z,102281.42
2018-03-20T19:53:25.770Z,102288.95
2018-03-20T19:55:56.596Z,102285.89
2018-03-20T19:58:25.214Z,102285.47
2018-03-20T20:00:54.411Z,102296.43
2018-03-20T20:03:26.260Z,102294.81
2018-03-20T20:05:54.998Z,102297.56
2018-03-20T20:08:23.581Z,102305.92
2018-03-20T20:10:52.145Z,102305.16
2018-03-20T20:13:20.775Z,102305.20
2018-03-20T20:15:49.457Z,102306.59
2018-03-20T20:18:18.151Z,102316.25
2018-03-20T20:20:46.889Z,102315.84
2018-03-20T20:23:15.783Z,102320.75
2018-03-20T20:25:45.803Z,102318.61
2018-03-20T20:28:14.358Z,102321.33
2018-03-20T20:30:42.995Z,102326.55
2018-03-20T20:33:11.937Z,102320.95
2018-03-20T20:35:40.599Z,102327.56
2018-03-20T20:38:09.955Z,102331.54
2018-03-20T20:40:38.882Z,102332.89
2018-03-20T20:43:07.773Z,102332.02
2018-03-20T20:45:36.520Z,102335.03
2018-03-20T20:48:05.790Z,102334.05
2018-03-20T20:50:35.443Z,102343.56
2018-03-20T20:53:04.155Z,102337.33
2018-03-20T20:55:33.481Z,102339.51
2018-03-20T20:58:03.328Z,102340.08
2018-03-20T21:00:32.368Z,102350.47
2018-03-20T21:03:00.949Z,102344.97
2018-03-20T21:05:29.636Z,102343.34
2018-03-20T21:07:58.221Z,102348.18
2018-03-20T21:10:26.910Z,102350.45
2018-03-20T21:12:55.436Z,102351.78
2018-03-20T21:15:24.147Z,102348.70
2018-03-20T21:17:52.810Z,102356.61
2018-03-20T21:20:21.787Z,102357.50
2018-03-20T21:22:50.329Z,102356.66
2018-03-20T21:25:19.303Z,102361.40
2018-03-20T21:27:48.528Z,102358.78
2018-03-20T21:30:17.132Z,102363.41
2018-03-20T21:32:46.570Z,102362.58
2018-03-20T21:35:15.292Z,102365.70
2018-03-20T21:37:44.177Z,102359.25
2018-03-20T21:40:12.985Z,102361.97
2018-03-20T21:42:41.673Z,102372.48
2018-03-20T21:45:10.545Z,102379.52
2018-03-20T21:47:39.559Z,102376.90
2018-03-20T21:50:08.357Z,102370.75
2018-03-20T21:52:37.178Z,102369.45
2018-03-20T21:55:05.922Z,102365.52
2018-03-20T21:57:34.562Z,102362.92
2018-03-20T22:00:03.171Z,102369.00
2018-03-20T22:02:32.030Z,102373.77
2018-03-20T22:05:00.920Z,102375.00
2018-03-20T22:07:29.375Z,102374.06
2018-03-20T22:09:58.010Z,102383.73
2018-03-20T22:12:26.488Z,102382.80
2018-03-20T22:14:55.047Z,102383.72
2018-03-20T22:17:23.584Z,102380.28
2018-03-20T22:19:52.239Z,102378.02
2018-03-20T22:22:20.696Z,102379.23
2018-03-20T22:24:49.208Z,102387.18
2018-03-20T22:27:17.709Z,102382.34
2018-03-20T22:29:46.197Z,102388.01
2018-03-20T22:32:14.726Z,102390.66
2018-03-20T22:34:43.218Z,102387.60
2018-03-20T22:37:11.812Z,102387.23
2018-03-20T22:39:40.394Z,102389.45
2018-03-20T22:42:09.191Z,102394.33
2018-03-20T22:44:38.050Z,102393.98
2018-03-20T22:47:06.894Z,102387.01
2018-03-20T22:49:35.452Z,102390.97
2018-03-20T22:52:03.999Z,102384.38
2018-03-20T22:54:32.827Z,102384.86
2018-03-20T22:57:01.479Z,102380.52
2018-03-20T22:59:30.061Z,102387.49
2018-03-20T23:01:58.952Z,102390.57
2018-03-20T23:04:28.360Z,102386.59
2018-03-20T23:06:57.124Z,102394.09
2018-03-20T23:09:25.784Z,102394.48
2018-03-20T23:11:54.759Z,102391.31
2018-03-20T23:14:23.333Z,102397.00
2018-03-20T23:16:52.012Z,102391.72
2018-03-20T23:19:20.500Z,102391.27
2018-03-20T23:21:49.057Z,102393.98
2018-03-20T23:24:17.900Z,102390.97
2018-03-20T23:26:46.546Z,102389.64
2018-03-20T23:29:15.191Z,102387.45
2018-03-20T23:31:44.307Z,102395.27
2018-03-20T23:34:12.989Z,102388.24
2018-03-20T23:36:41.522Z,102391.78
2018-03-20T23:39:10.107Z,102393.13
2018-03-20T23:41:38.954Z,102389.69
2018-03-20T23:44:07.496Z,102391.88
2018-03-20T23:46:35.986Z,102392.34
2018-03-20T23:49:04.665Z,102391.04
2018-03-20T23:51:33.095Z,102396.74
2018-03-20T23:54:01.601Z,102395.92
2018-03-20T23:56:30.262Z,102396.80
2018-03-20T23:58:58.686Z,102398.53
